sensor_id;sensor_type;location;lat;lon;timestamp;temperature;humidity
67603;DHT22;54417;47.454;18.918;2023-02-01T00:03:14;2.61;90.99
67603;DHT22;54417;47.454;18.918;2023-02-01T00:08:41;2.44;91.30
67603;DHT22;54417;47.454;18.918;2023-02-01T00:14:06;2.37;91.45
67603;DHT22;54417;47.454;18.918;2023-02-01T00:19:30;2.34;91.56
67603;DHT22;54417;47.454;18.918;2023-02-01T00:24:54;2.37;91.35
67603;DHT22;54417;47.454;18.918;2023-02-01T00:30:19;2.40;91.16
67603;DHT22;54417;47.454;18.918;2023-02-01T00:35:43;2.32;91.30
67603;DHT22;54417;47.454;18.918;2023-02-01T00:41:10;1.99;91.80
67603;DHT22;54417;47.454;18.918;2023-02-01T00:46:36;1.82;92.19
67603;DHT22;54417;47.454;18.918;2023-02-01T00:52:00;1.79;92.13
67603;DHT22;54417;47.454;18.918;2023-02-01T00:57:24;1.79;91.91
67603;DHT22;54417;47.454;18.918;2023-02-01T01:02:49;1.72;91.62
67603;DHT22;54417;47.454;18.918;2023-02-01T01:08:13;1.65;90.68
67603;DHT22;54417;47.454;18.918;2023-02-01T01:13:37;1.67;90.43
67603;DHT22;54417;47.454;18.918;2023-02-01T01:19:03;1.81;90.06
67603;DHT22;54417;47.454;18.918;2023-02-01T01:24:27;1.82;89.71
67603;DHT22;54417;47.454;18.918;2023-02-01T01:29:51;1.88;89.36
67603;DHT22;54417;47.454;18.918;2023-02-01T01:35:16;1.88;89.21
67603;DHT22;54417;47.454;18.918;2023-02-01T01:40:44;2.13;88.22
67603;DHT22;54417;47.454;18.918;2023-02-01T01:46:08;2.22;87.85
67603;DHT22;54417;47.454;18.918;2023-02-01T01:51:37;2.30;87.83
67603;DHT22;54417;47.454;18.918;2023-02-01T01:57:04;2.20;88.11
67603;DHT22;54417;47.454;18.918;2023-02-01T02:02:29;2.06;88.34
67603;DHT22;54417;47.454;18.918;2023-02-01T02:07:58;1.95;88.51
67603;DHT22;54417;47.454;18.918;2023-02-01T02:13:22;1.96;88.51
67603;DHT22;54417;47.454;18.918;2023-02-01T02:18:55;2.01;88.33
67603;DHT22;54417;47.454;18.918;2023-02-01T02:24:43;2.05;88.21
67603;DHT22;54417;47.454;18.918;2023-02-01T02:30:40;2.01;88.29
67603;DHT22;54417;47.454;18.918;2023-02-01T02:36:16;1.85;88.73
67603;DHT22;54417;47.454;18.918;2023-02-01T02:41:48;1.72;89.16
67603;DHT22;54417;47.454;18.918;2023-02-01T02:47:34;1.61;89.54
67603;DHT22;54417;47.454;18.918;2023-02-01T02:53:03;1.44;89.87
67603;DHT22;54417;47.454;18.918;2023-02-01T02:58:46;1.44;90.11
67603;DHT22;54417;47.454;18.918;2023-02-01T03:04:28;1.37;90.37
67603;DHT22;54417;47.454;18.918;2023-02-01T03:09:53;1.41;90.75
67603;DHT22;54417;47.454;18.918;2023-02-01T03:15:17;1.46;90.55
67603;DHT22;54417;47.454;18.918;2023-02-01T03:20:45;1.52;90.46
67603;DHT22;54417;47.454;18.918;2023-02-01T03:26:13;1.65;90.17
67603;DHT22;54417;47.454;18.918;2023-02-01T03:31:38;1.69;89.98
67603;DHT22;54417;47.454;18.918;2023-02-01T03:37:04;2.02;89.25
67603;DHT22;54417;47.454;18.918;2023-02-01T03:42:35;2.22;88.70
67603;DHT22;54417;47.454;18.918;2023-02-01T03:48:02;2.25;88.32
67603;DHT22;54417;47.454;18.918;2023-02-01T03:53:28;2.37;88.07
67603;DHT22;54417;47.454;18.918;2023-02-01T03:58:53;2.40;87.80
67603;DHT22;54417;47.454;18.918;2023-02-01T04:04:28;2.50;87.27
67603;DHT22;54417;47.454;18.918;2023-02-01T04:09:52;2.71;86.61
67603;DHT22;54417;47.454;18.918;2023-02-01T04:15:17;2.70;86.43
67603;DHT22;54417;47.454;18.918;2023-02-01T04:20:42;2.67;86.42
67603;DHT22;54417;47.454;18.918;2023-02-01T04:26:06;2.60;86.70
67603;DHT22;54417;47.454;18.918;2023-02-01T04:31:31;2.51;86.91
67603;DHT22;54417;47.454;18.918;2023-02-01T04:36:55;2.51;86.73
67603;DHT22;54417;47.454;18.918;2023-02-01T04:42:19;2.51;86.75
67603;DHT22;54417;47.454;18.918;2023-02-01T04:47:44;2.50;86.76
67603;DHT22;54417;47.454;18.918;2023-02-01T04:53:07;2.85;85.21
67603;DHT22;54417;47.454;18.918;2023-02-01T04:58:31;3.01;84.72
67603;DHT22;54417;47.454;18.918;2023-02-01T05:03:56;3.05;84.70
67603;DHT22;54417;47.454;18.918;2023-02-01T05:09:20;2.95;84.83
67603;DHT22;54417;47.454;18.918;2023-02-01T05:14:44;3.04;84.33
67603;DHT22;54417;47.454;18.918;2023-02-01T05:20:10;3.01;84.36
67603;DHT22;54417;47.454;18.918;2023-02-01T05:25:34;3.15;84.25
67603;DHT22;54417;47.454;18.918;2023-02-01T05:30:58;3.22;83.92
67603;DHT22;54417;47.454;18.918;2023-02-01T05:36:23;3.13;84.40
67603;DHT22;54417;47.454;18.918;2023-02-01T05:41:47;3.19;83.73
67603;DHT22;54417;47.454;18.918;2023-02-01T05:47:11;3.08;84.13
67603;DHT22;54417;47.454;18.918;2023-02-01T05:52:37;2.98;84.57
67603;DHT22;54417;47.454;18.918;2023-02-01T05:58:00;2.84;85.07
67603;DHT22;54417;47.454;18.918;2023-02-01T06:03:24;2.78;85.48
67603;DHT22;54417;47.454;18.918;2023-02-01T06:08:50;2.70;85.78
67603;DHT22;54417;47.454;18.918;2023-02-01T06:14:14;2.62;85.90
67603;DHT22;54417;47.454;18.918;2023-02-01T06:19:37;2.60;86.16
67603;DHT22;54417;47.454;18.918;2023-02-01T06:25:08;2.62;86.03
67603;DHT22;54417;47.454;18.918;2023-02-01T06:30:32;2.67;85.84
67603;DHT22;54417;47.454;18.918;2023-02-01T06:35:57;2.80;85.40
67603;DHT22;54417;47.454;18.918;2023-02-01T06:41:23;2.83;85.58
67603;DHT22;54417;47.454;18.918;2023-02-01T06:46:50;3.06;84.46
67603;DHT22;54417;47.454;18.918;2023-02-01T06:52:17;3.44;82.95
67603;DHT22;54417;47.454;18.918;2023-02-01T06:57:42;3.67;82.24
67603;DHT22;54417;47.454;18.918;2023-02-01T07:03:07;3.67;82.40
67603;DHT22;54417;47.454;18.918;2023-02-01T07:08:32;3.90;81.20
67603;DHT22;54417;47.454;18.918;2023-02-01T07:13:58;3.99;81.08
67603;DHT22;54417;47.454;18.918;2023-02-01T07:19:22;4.11;80.70
67603;DHT22;54417;47.454;18.918;2023-02-01T07:24:46;4.23;80.41
67603;DHT22;54417;47.454;18.918;2023-02-01T07:30:14;4.46;79.71
67603;DHT22;54417;47.454;18.918;2023-02-01T07:35:38;4.67;79.17
67603;DHT22;54417;47.454;18.918;2023-02-01T07:41:05;4.88;79.22
67603;DHT22;54417;47.454;18.918;2023-02-01T07:46:31;4.88;78.50
67603;DHT22;54417;47.454;18.918;2023-02-01T07:51:55;4.92;78.40
67603;DHT22;54417;47.454;18.918;2023-02-01T07:57:21;5.04;78.67
67603;DHT22;54417;47.454;18.918;2023-02-01T08:02:46;5.00;78.30
67603;DHT22;54417;47.454;18.918;2023-02-01T08:08:10;5.14;79.22
67603;DHT22;54417;47.454;18.918;2023-02-01T08:13:36;4.80;78.74
67603;DHT22;54417;47.454;18.918;2023-02-01T08:19:02;4.85;79.03
67603;DHT22;54417;47.454;18.918;2023-02-01T08:24:29;4.85;78.87
67603;DHT22;54417;47.454;18.918;2023-02-01T08:29:53;4.80;78.91
67603;DHT22;54417;47.454;18.918;2023-02-01T08:35:22;5.05;78.41
67603;DHT22;54417;47.454;18.918;2023-02-01T08:41:05;5.38;78.23
67603;DHT22;54417;47.454;18.918;2023-02-01T08:46:29;5.76;77.35
67603;DHT22;54417;47.454;18.918;2023-02-01T08:51:55;5.97;75.48
67603;DHT22;54417;47.454;18.918;2023-02-01T08:57:30;5.98;73.97
67603;DHT22;54417;47.454;18.918;2023-02-01T09:02:55;6.10;74.02
67603;DHT22;54417;47.454;18.918;2023-02-01T09:08:23;6.13;74.18
67603;DHT22;54417;47.454;18.918;2023-02-01T09:13:49;6.13;74.84
67603;DHT22;54417;47.454;18.918;2023-02-01T09:19:14;6.11;74.61
67603;DHT22;54417;47.454;18.918;2023-02-01T09:24:49;6.49;73.17
67603;DHT22;54417;47.454;18.918;2023-02-01T09:30:16;6.75;73.00
67603;DHT22;54417;47.454;18.918;2023-02-01T09:35:41;6.87;72.20
67603;DHT22;54417;47.454;18.918;2023-02-01T09:41:21;7.20;72.30
67603;DHT22;54417;47.454;18.918;2023-02-01T09:46:53;7.17;72.06
67603;DHT22;54417;47.454;18.918;2023-02-01T09:52:23;6.83;73.51
67603;DHT22;54417;47.454;18.918;2023-02-01T09:57:53;7.10;73.67
67603;DHT22;54417;47.454;18.918;2023-02-01T10:03:20;7.21;73.61
67603;DHT22;54417;47.454;18.918;2023-02-01T10:09:20;7.45;73.29
67603;DHT22;54417;47.454;18.918;2023-02-01T10:14:59;7.15;72.82
67603;DHT22;54417;47.454;18.918;2023-02-01T10:20:31;7.14;73.48
67603;DHT22;54417;47.454;18.918;2023-02-01T10:26:08;7.17;75.05
67603;DHT22;54417;47.454;18.918;2023-02-01T10:31:37;6.53;76.09
67603;DHT22;54417;47.454;18.918;2023-02-01T10:37:11;6.61;76.55
67603;DHT22;54417;47.454;18.918;2023-02-01T10:42:41;6.85;75.37
67603;DHT22;54417;47.454;18.918;2023-02-01T10:48:07;6.75;75.80
67603;DHT22;54417;47.454;18.918;2023-02-01T10:53:36;6.64;76.61
67603;DHT22;54417;47.454;18.918;2023-02-01T10:59:11;6.65;78.55
67603;DHT22;54417;47.454;18.918;2023-02-01T11:04:39;6.71;77.06
67603;DHT22;54417;47.454;18.918;2023-02-01T11:10:04;6.61;77.09
67603;DHT22;54417;47.454;18.918;2023-02-01T11:15:28;6.87;77.64
67603;DHT22;54417;47.454;18.918;2023-02-01T11:20:53;7.06;76.81
67603;DHT22;54417;47.454;18.918;2023-02-01T11:26:21;6.93;79.42
67603;DHT22;54417;47.454;18.918;2023-02-01T11:31:46;6.82;79.19
67603;DHT22;54417;47.454;18.918;2023-02-01T11:37:24;6.65;80.71
67603;DHT22;54417;47.454;18.918;2023-02-01T11:42:54;6.59;81.33
67603;DHT22;54417;47.454;18.918;2023-02-01T11:48:18;6.59;82.41
67603;DHT22;54417;47.454;18.918;2023-02-01T11:54:02;6.56;82.92
67603;DHT22;54417;47.454;18.918;2023-02-01T11:59:51;6.31;82.76
67603;DHT22;54417;47.454;18.918;2023-02-01T12:05:37;6.15;84.51
67603;DHT22;54417;47.454;18.918;2023-02-01T12:11:27;5.85;85.05
67603;DHT22;54417;47.454;18.918;2023-02-01T12:17:06;5.31;88.64
67603;DHT22;54417;47.454;18.918;2023-02-01T12:22:44;5.02;89.52
67603;DHT22;54417;47.454;18.918;2023-02-01T12:28:27;4.81;90.38
67603;DHT22;54417;47.454;18.918;2023-02-01T12:34:03;4.46;90.63
67603;DHT22;54417;47.454;18.918;2023-02-01T12:39:39;4.23;91.30
67603;DHT22;54417;47.454;18.918;2023-02-01T12:45:12;4.09;91.64
67603;DHT22;54417;47.454;18.918;2023-02-01T12:50:45;4.22;92.46
67603;DHT22;54417;47.454;18.918;2023-02-01T12:56:18;4.26;91.56
67603;DHT22;54417;47.454;18.918;2023-02-01T13:01:49;4.67;91.49
67603;DHT22;54417;47.454;18.918;2023-02-01T13:07:22;5.08;91.09
67603;DHT22;54417;47.454;18.918;2023-02-01T13:12:54;5.07;90.77
67603;DHT22;54417;47.454;18.918;2023-02-01T13:18:22;4.94;91.09
67603;DHT22;54417;47.454;18.918;2023-02-01T13:23:50;4.85;91.00
67603;DHT22;54417;47.454;18.918;2023-02-01T13:29:14;4.73;90.87
67603;DHT22;54417;47.454;18.918;2023-02-01T13:35:07;4.71;91.18
67603;DHT22;54417;47.454;18.918;2023-02-01T13:40:41;4.66;90.72
67603;DHT22;54417;47.454;18.918;2023-02-01T13:46:08;4.61;90.72
67603;DHT22;54417;47.454;18.918;2023-02-01T13:51:42;4.70;90.79
67603;DHT22;54417;47.454;18.918;2023-02-01T13:57:15;4.57;91.37
67603;DHT22;54417;47.454;18.918;2023-02-01T14:03:08;4.60;91.21
67603;DHT22;54417;47.454;18.918;2023-02-01T14:08:44;4.84;90.82
67603;DHT22;54417;47.454;18.918;2023-02-01T14:20:43;4.90;91.01
67603;DHT22;54417;47.454;18.918;2023-02-01T14:26:21;4.85;90.91
67603;DHT22;54417;47.454;18.918;2023-02-01T14:31:53;4.92;90.75
67603;DHT22;54417;47.454;18.918;2023-02-01T14:37:28;4.92;91.00
67603;DHT22;54417;47.454;18.918;2023-02-01T14:42:56;5.07;89.96
67603;DHT22;54417;47.454;18.918;2023-02-01T14:48:43;5.17;89.51
67603;DHT22;54417;47.454;18.918;2023-02-01T14:54:12;5.17;89.52
67603;DHT22;54417;47.454;18.918;2023-02-01T14:59:39;5.21;88.15
67603;DHT22;54417;47.454;18.918;2023-02-01T15:05:22;5.11;87.50
67603;DHT22;54417;47.454;18.918;2023-02-01T15:10:48;5.02;86.95
67603;DHT22;54417;47.454;18.918;2023-02-01T15:16:16;4.94;87.77
67603;DHT22;54417;47.454;18.918;2023-02-01T15:21:45;4.91;87.78
67603;DHT22;54417;47.454;18.918;2023-02-01T15:27:10;4.83;87.90
67603;DHT22;54417;47.454;18.918;2023-02-01T15:32:37;4.70;88.48
67603;DHT22;54417;47.454;18.918;2023-02-01T15:44:13;4.54;88.67
67603;DHT22;54417;47.454;18.918;2023-02-01T15:49:41;4.36;88.66
67603;DHT22;54417;47.454;18.918;2023-02-01T15:55:16;4.28;88.63
67603;DHT22;54417;47.454;18.918;2023-02-01T16:00:43;4.38;88.11
67603;DHT22;54417;47.454;18.918;2023-02-01T16:06:12;4.53;87.52
67603;DHT22;54417;47.454;18.918;2023-02-01T16:11:54;4.61;86.61
67603;DHT22;54417;47.454;18.918;2023-02-01T16:17:18;4.67;87.16
67603;DHT22;54417;47.454;18.918;2023-02-01T16:22:44;4.60;87.60
67603;DHT22;54417;47.454;18.918;2023-02-01T16:28:08;4.52;88.28
67603;DHT22;54417;47.454;18.918;2023-02-01T16:33:32;4.54;88.43
67603;DHT22;54417;47.454;18.918;2023-02-01T16:38:58;4.49;88.99
67603;DHT22;54417;47.454;18.918;2023-02-01T16:44:22;4.45;89.34
67603;DHT22;54417;47.454;18.918;2023-02-01T16:49:46;4.22;89.21
67603;DHT22;54417;47.454;18.918;2023-02-01T16:55:13;3.94;89.41
67603;DHT22;54417;47.454;18.918;2023-02-01T17:00:42;3.85;88.74
67603;DHT22;54417;47.454;18.918;2023-02-01T17:06:08;3.87;88.03
67603;DHT22;54417;47.454;18.918;2023-02-01T17:11:34;3.95;87.50
67603;DHT22;54417;47.454;18.918;2023-02-01T17:17:02;3.91;87.60
67603;DHT22;54417;47.454;18.918;2023-02-01T17:22:26;3.80;87.93
67603;DHT22;54417;47.454;18.918;2023-02-01T17:27:51;3.81;87.77
67603;DHT22;54417;47.454;18.918;2023-02-01T17:33:24;3.67;88.03
67603;DHT22;54417;47.454;18.918;2023-02-01T17:38:48;3.71;87.24
67603;DHT22;54417;47.454;18.918;2023-02-01T17:44:27;3.67;87.55
67603;DHT22;54417;47.454;18.918;2023-02-01T17:49:51;3.53;87.85
67603;DHT22;54417;47.454;18.918;2023-02-01T17:55:19;3.36;88.14
67603;DHT22;54417;47.454;18.918;2023-02-01T18:00:47;3.25;88.42
67603;DHT22;54417;47.454;18.918;2023-02-01T18:06:14;3.29;88.44
67603;DHT22;54417;47.454;18.918;2023-02-01T18:11:37;3.19;88.46
67603;DHT22;54417;47.454;18.918;2023-02-01T18:17:04;3.23;88.04
67603;DHT22;54417;47.454;18.918;2023-02-01T18:22:27;3.22;88.16
67603;DHT22;54417;47.454;18.918;2023-02-01T18:27:54;3.15;87.98
67603;DHT22;54417;47.454;18.918;2023-02-01T18:33:20;3.22;87.81
67603;DHT22;54417;47.454;18.918;2023-02-01T18:38:43;3.32;87.79
67603;DHT22;54417;47.454;18.918;2023-02-01T18:44:12;3.39;87.62
67603;DHT22;54417;47.454;18.918;2023-02-01T18:49:38;3.30;87.66
67603;DHT22;54417;47.454;18.918;2023-02-01T18:55:02;3.32;87.84
67603;DHT22;54417;47.454;18.918;2023-02-01T19:00:26;3.37;87.35
67603;DHT22;54417;47.454;18.918;2023-02-01T19:05:54;3.46;86.99
67603;DHT22;54417;47.454;18.918;2023-02-01T19:11:18;3.56;86.21
67603;DHT22;54417;47.454;18.918;2023-02-01T19:16:42;3.64;85.68
67603;DHT22;54417;47.454;18.918;2023-02-01T19:22:07;3.67;85.45
67603;DHT22;54417;47.454;18.918;2023-02-01T19:27:31;3.78;84.97
67603;DHT22;54417;47.454;18.918;2023-02-01T19:32:54;3.74;85.14
67603;DHT22;54417;47.454;18.918;2023-02-01T19:38:19;3.75;84.87
67603;DHT22;54417;47.454;18.918;2023-02-01T19:43:43;3.82;84.82
67603;DHT22;54417;47.454;18.918;2023-02-01T19:49:07;3.88;84.51
67603;DHT22;54417;47.454;18.918;2023-02-01T19:54:34;4.03;83.43
67603;DHT22;54417;47.454;18.918;2023-02-01T19:59:58;4.21;82.70
67603;DHT22;54417;47.454;18.918;2023-02-01T20:05:25;4.33;81.99
67603;DHT22;54417;47.454;18.918;2023-02-01T20:10:50;4.32;82.48
67603;DHT22;54417;47.454;18.918;2023-02-01T20:16:14;4.32;82.34
67603;DHT22;54417;47.454;18.918;2023-02-01T20:21:39;4.25;82.20
67603;DHT22;54417;47.454;18.918;2023-02-01T20:27:06;4.23;82.57
67603;DHT22;54417;47.454;18.918;2023-02-01T20:32:31;4.29;82.15
67603;DHT22;54417;47.454;18.918;2023-02-01T20:37:55;4.26;83.02
67603;DHT22;54417;47.454;18.918;2023-02-01T20:43:21;4.23;84.37
67603;DHT22;54417;47.454;18.918;2023-02-01T20:48:47;4.25;84.89
67603;DHT22;54417;47.454;18.918;2023-02-01T20:54:11;4.15;86.82
67603;DHT22;54417;47.454;18.918;2023-02-01T20:59:36;3.77;91.42
67603;DHT22;54417;47.454;18.918;2023-02-01T21:05:00;3.43;92.21
67603;DHT22;54417;47.454;18.918;2023-02-01T21:10:23;3.32;92.33
67603;DHT22;54417;47.454;18.918;2023-02-01T22:12:46;3.30;92.66
67603;DHT22;54417;47.454;18.918;2023-02-01T22:26:16;3.18;92.94
67603;DHT22;54417;47.454;18.918;2023-02-01T22:40:15;3.16;92.95
67603;DHT22;54417;47.454;18.918;2023-02-01T22:48:27;3.15;93.11
67603;DHT22;54417;47.454;18.918;2023-02-01T22:55:00;3.22;92.54
67603;DHT22;54417;47.454;18.918;2023-02-01T23:07:58;3.43;90.65
67603;DHT22;54417;47.454;18.918;2023-02-01T23:13:22;3.50;89.95
67603;DHT22;54417;47.454;18.918;2023-02-01T23:18:46;3.73;88.99
67603;DHT22;54417;47.454;18.918;2023-02-01T23:24:11;3.85;88.98
67603;DHT22;54417;47.454;18.918;2023-02-01T23:29:35;3.85;88.55
67603;DHT22;54417;47.454;18.918;2023-02-01T23:34:59;3.78;89.49
67603;DHT22;54417;47.454;18.918;2023-02-01T23:40:24;3.75;89.86
67603;DHT22;54417;47.454;18.918;2023-02-01T23:45:48;3.71;89.99
67603;DHT22;54417;47.454;18.918;2023-02-01T23:51:14;3.75;89.03
67603;DHT22;54417;47.454;18.918;2023-02-01T23:56:41;3.80;88.91
